Yorkville, NY (13495)

4:05 AM EST on February 21, 2018 (GMT -0500)
Yorkville | | Change Station
Active Advisory: Areal Flood Watch Active Notice: Areal Flood Watch

Elev 423 ft 43.12 °N, 75.28 °W | Updated 2 seconds ago

Clear
Clear
63.0 °F
Feels Like 63.0 °F
N
5.0
Wind Variable Wind from WSW

Today
High -- | Low -- °F
--% Chance of Precip.
Yesterday
High -- | Low -- °F
Precip. -- in
Pressure 30.14 in
Visibility 10.0 miles
Clouds Few 7500 ft
Dew Point 53 °F
Humidity 71%
Rainfall 0.00 in
Snow Depth Not available.
6:49 AM 5:40 PM
Waxing Crescent, 29% visible
METAR KRME 210853Z AUTO 21007G15KT 10SM FEW075 16/11 A3014 RMK AO2 SLP204 T01560111 58010
Pressure 30.14 in
Visibility 10.0 miles
Clouds Few 7500 ft
Dew Point 53 °F
Humidity 71%
Rainfall 0.00 in
Snow Depth Not available.
6:49 AM 5:40 PM
Waxing Crescent, 29% visible
METAR KRME 210853Z AUTO 21007G15KT 10SM FEW075 16/11 A3014 RMK AO2 SLP204 T01560111 58010

Get Your Daily Forecast Email!

Thanks for signing up!

Be on the lookout for a verification email in your inbox.

You'll start receiving severe weather alerts in your inbox..

×

10-Day Weather Forecast

Almanac

Astronomy

Feb. 21, 2018 Rise Set
Actual Time
Civil Twilight
Nautical Twilight
Astronomical Twilight
Moon
Length of Visible Light
Length of Day
Tomorrow will be .
, % of the Moon is Illuminated

Today's Extremes

State Highs State Lows

Community

WunderPhotos

Category 6

Welcome to Category 6. This is the collective home for Weather Underground's featured writeups by Dr. Jeff Masters (right), Bob Henson (left), Chris Burt, and other regular contributors.

Nearby

Air Quality

  Air Quality AQ Index Pollutant
Not available.

Snow Depth

Station Depth Elevation

Earthquake Activity

City Distance Mag. Time & Date
Minimum magnitude displayed is 2.5.

Coastal Water Temperatures

Place Temperature

Stations

Nearby Weather Stations

Station Location Temp. Windchill Dew Point Humidity Wind Precip. Elev Updated Type
                   

Watches & Warnings

Areal Flood Watch
Issued: 4:01 AM EST Feb. 21, 2018 – National Weather Service

... Flood Watch remains in effect through late tonight...

The Flood Watch continues for

* a portion of central New York, including the following areas,
Oneida County.

* Through late tonight

* the combination of 1 inch of rain recently and several inches of
snow melt across Oneida County through today will cause area
streams and rivers to rise. Rising waters may cause minor
flooding in poor drainage areas. Rising water will break up ice
and potentially cause ice jams downstream. Ice jam flooding is
also possible.

Precautionary/preparedness actions...

A Flood Watch means there is a potential for flooding based on
current forecasts.

You should monitor later forecasts and be alert for possible
flood warnings. Those living in areas prone to flooding should be
prepared to take action should flooding develop.